Island Venture — WDG3765 — position and weather

sailwx.info

Track history (hours):
 
Tides and Currents Weather Stations Pressure Air Temp Water Temp Dewpoint Dewpoint Depression Visibility Wind Speed Wind Dir Waves Ship Positions

Island Venture

Owner: Island Tug & Barge Co, Seattle, WA. More information available from US FCC via Universal Licensing System and Coast Guard Vessel Documentation Center.

Last reported at 2015-Mar-06 15:33 UTC. Time now 2015-Mar-06 16:06 UTC.
Position N 47°16' W 122°33'.

Type: Tug. MMSI: 367529420.

Date/timePositionNaut miles runAvg speedWind from/ knotsBaromVisibWave heightAir tempDewpointWater temp
2015-Mar-06 15:33N 47°16' W 122°33'7 7.3
2015-Mar-06 14:33N 47°23' W 122°32'9 8.6
2015-Mar-06 13:33N 47°32' W 122°28'0 8.8
2015-Mar-06 13:31N 47°32' W 122°28'5 5.4
2015-Mar-06 12:33N 47°34' W 122°21'0 3.6
2015-Mar-06 12:31N 47°34' W 122°21'0 0.4
2015-Mar-06 11:33N 47°34' W 122°21'0 0.6
2015-Mar-06 11:31N 47°34' W 122°21'0 0.4
2015-Mar-06 10:33N 47°34' W 122°21'0 0.0
2015-Mar-06 10:31N 47°34' W 122°21'0 0.0
2015-Mar-06 09:33N 47°34' W 122°21'0 0.1
2015-Mar-06 09:31N 47°34' W 122°21'0 0.0
2015-Mar-06 08:33N 47°34' W 122°21'0 0.0
2015-Mar-06 08:31N 47°34' W 122°21'0 0.0
2015-Mar-06 07:33N 47°34' W 122°21'0 0.0
2015-Mar-06 07:31N 47°34' W 122°21'0 0.0
2015-Mar-06 07:06N 47°34' W 122°21'0 0.0
2015-Mar-06 06:33N 47°34' W 122°21'0 0.0
2015-Mar-06 05:33N 47°34' W 122°21'0 0.0
2015-Mar-06 05:31N 47°34' W 122°21'0 0.0
2015-Mar-06 04:33N 47°34' W 122°21'0 0.0
2015-Mar-06 04:25N 47°34' W 122°21'0 0.5
2015-Mar-06 03:33N 47°34' W 122°21'0 2.6
2015-Mar-06 03:25N 47°34' W 122°21'2 2.2
2015-Mar-06 02:33N 47°35' W 122°22'0 6.1
2015-Mar-06 02:30N 47°36' W 122°22'3 3.6
2015-Mar-06 01:33N 47°38' W 122°26'0 5.7
2015-Mar-06 01:30N 47°38' W 122°27'5 5.4
2015-Mar-06 00:33N 47°43' W 122°28'0 5.7
2015-Mar-06 00:29N 47°43' W 122°28'5 5.8
2015-Mar-05 23:33N 47°49' W 122°28'0 5.5
2015-Mar-05 23:29N 47°49' W 122°28'6 6.1
2015-Mar-05 22:33N 47°55' W 122°30'7 6.6
2015-Mar-05 21:33N 47°60' W 122°37'6 6.0
2015-Mar-05 20:31N 48°05' W 122°40'7 6.4
2015-Mar-05 19:30N 48°10' W 122°46'5 5.4
2015-Mar-05 18:31N 48°16' W 122°49'6 6.3
2015-Mar-05 17:30N 48°22' W 122°46'7 7.1
2015-Mar-05 16:33N 48°28' W 122°44'8 7.6
2015-Mar-05 15:33N 48°36' W 122°45'6 6.1
2015-Mar-05 14:33N 48°42' W 122°44'6 5.6
2015-Mar-05 13:33N 48°46' W 122°50'6 5.8
2015-Mar-05 12:33N 48°49' W 122°58'5 5.1
2015-Mar-05 11:33N 48°52' W 123°05'5 5.4
2015-Mar-05 10:33N 48°55' W 123°11'5 5.3
2015-Mar-05 09:33N 48°59' W 123°16'6 5.7
2015-Mar-05 08:33N 49°03' W 123°23'5 5.5
2015-Mar-05 07:33N 49°06' W 123°29'6 6.2
2015-Mar-05 06:33N 49°11' W 123°36'6 5.9
2015-Mar-05 05:33N 49°14' W 123°43'7 6.4
2015-Mar-05 04:32N 49°19' W 123°51'7 6.1
2015-Mar-05 03:27N 49°23' W 123°59'6 6.0
2015-Mar-05 02:29N 49°27' W 124°05'6 5.9
2015-Mar-05 01:26N 49°31' W 124°13'5 5.7
2015-Mar-05 00:29N 49°33' W 124°20'12 5.4
2015-Mar-04 22:13N 49°41' W 124°34'1 0.2
2015-Mar-04 17:23N 49°42' W 124°33'0 0.1
2015-Mar-04 16:30N 49°42' W 124°33'0 0.0
2015-Mar-04 15:33N 49°42' W 124°33'0 0.0
2015-Mar-04 14:31N 49°42' W 124°33'3 2.6
2015-Mar-04 13:27N 49°39' W 124°33'2 2.4
2015-Mar-04 12:30N 49°38' W 124°30'4 4.3
2015-Mar-04 11:31N 49°35' W 124°25'4 4.7
2015-Mar-04 10:33N 49°33' W 124°19'5 5.3
2015-Mar-04 09:33N 49°30' W 124°11'6 6.1
2015-Mar-04 08:33N 49°26' W 124°05'6 5.7
2015-Mar-04 07:32N 49°23' W 123°58'6 5.5
2015-Mar-04 06:31N 49°20' W 123°50'5 5.2
2015-Mar-04 05:33N 49°17' W 123°44'5 5.0
2015-Mar-04 04:33N 49°14' W 123°38'5 5.2
2015-Mar-04 03:33N 49°10' W 123°32'6 6.3
2015-Mar-04 02:34N 49°06' W 123°25'7 7.0
2015-Mar-04 01:33N 49°02' W 123°17'6 6.2
2015-Mar-04 00:33N 48°58' W 123°09'6 5.8
2015-Mar-03 23:33N 48°54' W 123°03'7 6.8
2015-Mar-03 22:33N 48°50' W 122°55'7 7.3
2015-Mar-03 21:32N 48°45' W 122°46'7 6.8
2015-Mar-03 20:33N 48°39' W 122°44'7 6.8
2015-Mar-03 19:33N 48°32' W 122°44'7 6.7
2015-Mar-03 18:33N 48°25' W 122°45'7 6.7
2015-Mar-03 17:32N 48°18' W 122°46'7 6.7
2015-Mar-03 16:32N 48°12' W 122°46'10 9.3
2015-Mar-03 15:28N 48°03' W 122°38'8 8.8
2015-Mar-03 14:33N 47°57' W 122°31'5 8.8
2015-Mar-03 13:59N 47°53' W 122°26'3 7.7
2015-Mar-03 13:33N 47°54' W 122°21'6 5.8
2015-Mar-03 12:33N 47°58' W 122°16'2 2.2
2015-Mar-03 11:33N 47°60' W 122°13'2 1.8
2015-Mar-03 10:31N 48°01' W 122°11'0 0.0
2015-Mar-03 07:31N 48°01' W 122°11'0 0.0
2015-Mar-03 06:33N 48°01' W 122°11'0 0.0
2015-Mar-03 05:32N 48°01' W 122°11'0 0.0
2015-Mar-03 02:33N 48°01' W 122°11'0 0.0
2015-Mar-03 01:33N 48°01' W 122°11'0 0.0
2015-Mar-03 00:31N 48°01' W 122°11'0 0.0
2015-Mar-02 23:25N 48°01' W 122°11'0 0.0
2015-Mar-02 22:16N 48°01' W 122°11'0 0.0
2015-Mar-02 20:33N 48°01' W 122°11'0 0.0
2015-Mar-02 18:07N 48°01' W 122°11'0 0.0
2015-Mar-02 13:08N 48°01' W 122°11'0 0.3
2015-Mar-02 12:33N 48°01' W 122°11'0 0.2
2015-Mar-02 11:33N 48°01' W 122°12'2 2.0
2015-Mar-02 10:33N 47°60' W 122°13'2 1.5
2015-Mar-02 09:33N 47°58' W 122°15'2 2.3
2015-Mar-02 08:33N 47°58' W 122°18'4 4.2
2015-Mar-02 07:33N 47°54' W 122°21'5 4.6
2015-Mar-02 06:33N 47°50' W 122°24'5 4.9
2015-Mar-02 05:33N 47°45' W 122°25'0 4.9
2015-Mar-02 05:30N 47°45' W 122°25'5 4.9
2015-Mar-02 04:33N 47°40' W 122°27'0 4.5
2015-Mar-02 04:30N 47°40' W 122°27'5 5.2
2015-Mar-02 03:33N 47°36' W 122°22'0 5.1
2015-Mar-02 03:30N 47°36' W 122°22'3 2.7
2015-Mar-02 02:33N 47°33' W 122°21'1 4.6
2015-Mar-02 02:19N 47°32' W 122°20'0 0.5
2015-Mar-02 01:30N 47°33' W 122°20'1 3.5
2015-Mar-02 01:08N 47°34' W 122°21'2 2.8
2015-Mar-02 00:33N 47°36' W 122°22'1 0.9
2015-Mar-01 23:14N 47°34' W 122°21'0 0.0
2015-Mar-01 23:14N 47°34' W 122°21'0 0.0
2015-Mar-01 22:33N 47°34' W 122°21'0 0.0
2015-Mar-01 22:24N 47°34' W 122°21'1 0.0
2015-Feb-28 10:33N 47°34' W 122°21'0 0.0
2015-Feb-28 10:19N 47°34' W 122°21'1 1.8
2015-Feb-28 09:32N 47°35' W 122°22'0 5.6
2015-Feb-28 09:28N 47°36' W 122°22'4 4.7
2015-Feb-28 08:32N 47°33' W 122°27'7 5.9
2015-Feb-28 07:26N 47°27' W 122°31'6 6.1
2015-Feb-28 06:30N 47°21' W 122°32'4 4.1
2015-Feb-28 05:27N 47°17' W 122°33'3 3.5
2015-Feb-28 04:33N 47°14' W 122°35'6 2.9
2015-Feb-28 02:21N 47°08' W 122°39'0 0.4
2015-Feb-28 01:25N 47°09' W 122°38'0 0.0
2015-Feb-28 00:07N 47°09' W 122°38'1 0.7
2015-Feb-27 23:17N 47°08' W 122°39'4 1.7
2015-Feb-27 21:08N 47°11' W 122°37'6 8.5
2015-Feb-27 20:28N 47°16' W 122°33'8 8.6
2015-Feb-27 19:30N 47°25' W 122°32'8 8.5
2015-Feb-27 18:32N 47°32' W 122°28'3 8.7
2015-Feb-27 18:08N 47°35' W 122°25'3 4.9
2015-Feb-27 17:31N 47°34' W 122°21'0 1.0
2015-Feb-27 17:19N 47°34' W 122°21'0 0.4
2015-Feb-27 16:25N 47°34' W 122°21'1 3.7
2015-Feb-27 16:13N 47°35' W 122°22'3 4.5
2015-Feb-27 15:31N 47°34' W 122°26'0 7.3
2015-Feb-27 15:28N 47°34' W 122°26'7 8.0
2015-Feb-27 14:33N 47°27' W 122°31'8 8.1
2015-Feb-27 13:32N 47°19' W 122°33'8 8.3
2015-Feb-27 12:33N 47°11' W 122°37'13 0.7
2015-Feb-26 18:05N 47°11' W 122°56'2 3.9
2015-Feb-26 17:30N 47°09' W 122°54'0 0.1
2015-Feb-26 16:33N 47°09' W 122°54'4 4.2
2015-Feb-26 15:33N 47°12' W 122°49'7 5.3
2015-Feb-26 14:18N 47°07' W 122°42'3 4.3
2015-Feb-26 13:33N 47°10' W 122°39'6 6.2
2015-Feb-26 12:33N 47°15' W 122°34'6 6.1
2015-Feb-26 11:33N 47°21' W 122°33'7 6.8
2015-Feb-26 10:33N 47°28' W 122°31'8 7.9
2015-Feb-26 09:32N 47°35' W 122°25'1 4.5
2015-Feb-26 09:20N 47°35' W 122°24'3 3.9
2015-Feb-26 08:27N 47°33' W 122°20'1 1.0
2015-Feb-26 07:32N 47°34' W 122°21'0 0.0
2015-Feb-26 07:28N 47°34' W 122°21'1 1.0
2015-Feb-26 06:58N 47°34' W 122°21'0 0.8
2015-Feb-26 06:29N 47°34' W 122°21'2 1.9
2015-Feb-26 05:33N 47°36' W 122°22'0 1.0
2015-Feb-26 05:28N 47°36' W 122°22'3 3.6
2015-Feb-26 04:33N 47°38' W 122°26'0 4.6
2015-Feb-26 04:33N 47°38' W 122°26'5 5.4
2015-Feb-26 03:33N 47°43' W 122°28'1 7.0
2015-Feb-26 03:28N 47°44' W 122°28'5 5.8
2015-Feb-26 02:33N 47°49' W 122°28'1 6.1
2015-Feb-26 02:20N 47°50' W 122°29'5 6.1
2015-Feb-26 01:33N 47°55' W 122°30'5 5.4
2015-Feb-26 00:33N 47°58' W 122°36'4 4.3
2015-Feb-25 23:33N 48°02' W 122°39'4 2.9
2015-Feb-25 22:09N 48°06' W 122°41'1 1.8
2015-Feb-25 21:26N 48°07' W 122°42'0 3.0
2015-Feb-25 21:17N 48°08' W 122°42'2 2.7
2015-Feb-25 20:32N 48°09' W 122°44'3 2.8
2015-Feb-25 19:33N 48°11' W 122°47'11 5.5
2015-Feb-25 17:33N 48°22' W 122°46'5 5.5
2015-Feb-25 16:33N 48°27' W 122°44'5 5.0
2015-Feb-25 15:33N 48°32' W 122°45'5 4.9
2015-Feb-25 14:33N 48°37' W 122°45'5 5.2
2015-Feb-25 13:33N 48°42' W 122°45'6 5.8
2015-Feb-25 12:31N 48°47' W 122°51'6 6.0
2015-Feb-25 11:33N 48°50' W 122°59'6 6.1
2015-Feb-25 10:33N 48°53' W 123°07'7 6.6
2015-Feb-25 09:33N 48°57' W 123°14'7 6.5
2015-Feb-25 08:33N 49°02' W 123°21'6 6.1
2015-Feb-25 07:33N 49°06' W 123°28'6 6.1
2015-Feb-25 06:33N 49°10' W 123°35'6 5.7
2015-Feb-25 05:33N 49°14' W 123°41'5 5.4
2015-Feb-25 04:33N 49°17' W 123°48'5 5.3
2015-Feb-25 03:32N 49°21' W 123°54'6 5.4
2015-Feb-25 02:26N 49°25' W 124°01'7 5.6
2015-Feb-25 01:15N 49°29' W 124°09'4 5.8
2015-Feb-25 00:31N 49°32' W 124°14'6 5.9
2015-Feb-24 23:33N 49°34' W 124°22'6 5.8
2015-Feb-24 22:28N 49°38' W 124°30'4 2.2
2015-Feb-24 20:33N 49°42' W 124°33'0 0.0
2015-Feb-24 19:33N 49°42' W 124°33'0 0.0
2015-Feb-24 17:32N 49°42' W 124°33'0 0.0
2015-Feb-24 16:13N 49°42' W 124°33'  
Track history (hours):
 
Tides and Currents Weather Stations Pressure Air Temp Water Temp Dewpoint Dewpoint Depression Visibility Wind Speed Wind Dir Waves Ship Positions

Island Venture

Owner: Island Tug & Barge Co, Seattle, WA. More information available from US FCC via Universal Licensing System and Coast Guard Vessel Documentation Center.

Last reported at 2015-Mar-06 15:33 UTC. Time now 2015-Mar-06 16:06 UTC.
Position N 47°16' W 122°33'.

Type: Tug. MMSI: 367529420.

Date/timePositionNaut miles runAvg speedWind from/ knotsBaromVisibWave heightAir tempDewpointWater temp
2015-Mar-06 15:33N 47°16' W 122°33'7 7.3
2015-Mar-06 14:33N 47°23' W 122°32'9 8.6
2015-Mar-06 13:33N 47°32' W 122°28'0 8.8
2015-Mar-06 13:31N 47°32' W 122°28'5 5.4
2015-Mar-06 12:33N 47°34' W 122°21'0 3.6
2015-Mar-06 12:31N 47°34' W 122°21'0 0.4
2015-Mar-06 11:33N 47°34' W 122°21'0 0.6
2015-Mar-06 11:31N 47°34' W 122°21'0 0.4
2015-Mar-06 10:33N 47°34' W 122°21'0 0.0
2015-Mar-06 10:31N 47°34' W 122°21'0 0.0
2015-Mar-06 09:33N 47°34' W 122°21'0 0.1
2015-Mar-06 09:31N 47°34' W 122°21'0 0.0
2015-Mar-06 08:33N 47°34' W 122°21'0 0.0
2015-Mar-06 08:31N 47°34' W 122°21'0 0.0
2015-Mar-06 07:33N 47°34' W 122°21'0 0.0
2015-Mar-06 07:31N 47°34' W 122°21'0 0.0
2015-Mar-06 07:06N 47°34' W 122°21'0 0.0
2015-Mar-06 06:33N 47°34' W 122°21'0 0.0
2015-Mar-06 05:33N 47°34' W 122°21'0 0.0
2015-Mar-06 05:31N 47°34' W 122°21'0 0.0
2015-Mar-06 04:33N 47°34' W 122°21'0 0.0
2015-Mar-06 04:25N 47°34' W 122°21'0 0.5
2015-Mar-06 03:33N 47°34' W 122°21'0 2.6
2015-Mar-06 03:25N 47°34' W 122°21'2 2.2
2015-Mar-06 02:33N 47°35' W 122°22'0 6.1
2015-Mar-06 02:30N 47°36' W 122°22'3 3.6
2015-Mar-06 01:33N 47°38' W 122°26'0 5.7
2015-Mar-06 01:30N 47°38' W 122°27'5 5.4
2015-Mar-06 00:33N 47°43' W 122°28'0 5.7
2015-Mar-06 00:29N 47°43' W 122°28'5 5.8
2015-Mar-05 23:33N 47°49' W 122°28'0 5.5
2015-Mar-05 23:29N 47°49' W 122°28'6 6.1
2015-Mar-05 22:33N 47°55' W 122°30'7 6.6
2015-Mar-05 21:33N 47°60' W 122°37'6 6.0
2015-Mar-05 20:31N 48°05' W 122°40'7 6.4
2015-Mar-05 19:30N 48°10' W 122°46'5 5.4
2015-Mar-05 18:31N 48°16' W 122°49'6 6.3
2015-Mar-05 17:30N 48°22' W 122°46'7 7.1
2015-Mar-05 16:33N 48°28' W 122°44'8 7.6
2015-Mar-05 15:33N 48°36' W 122°45'6 6.1
2015-Mar-05 14:33N 48°42' W 122°44'6 5.6
2015-Mar-05 13:33N 48°46' W 122°50'6 5.8
2015-Mar-05 12:33N 48°49' W 122°58'5 5.1
2015-Mar-05 11:33N 48°52' W 123°05'5 5.4
2015-Mar-05 10:33N 48°55' W 123°11'5 5.3
2015-Mar-05 09:33N 48°59' W 123°16'6 5.7
2015-Mar-05 08:33N 49°03' W 123°23'5 5.5
2015-Mar-05 07:33N 49°06' W 123°29'6 6.2
2015-Mar-05 06:33N 49°11' W 123°36'6 5.9
2015-Mar-05 05:33N 49°14' W 123°43'7 6.4
2015-Mar-05 04:32N 49°19' W 123°51'7 6.1
2015-Mar-05 03:27N 49°23' W 123°59'6 6.0
2015-Mar-05 02:29N 49°27' W 124°05'6 5.9
2015-Mar-05 01:26N 49°31' W 124°13'5 5.7
2015-Mar-05 00:29N 49°33' W 124°20'12 5.4
2015-Mar-04 22:13N 49°41' W 124°34'1 0.2
2015-Mar-04 17:23N 49°42' W 124°33'0 0.1
2015-Mar-04 16:30N 49°42' W 124°33'0 0.0
2015-Mar-04 15:33N 49°42' W 124°33'0 0.0
2015-Mar-04 14:31N 49°42' W 124°33'3 2.6
2015-Mar-04 13:27N 49°39' W 124°33'2 2.4
2015-Mar-04 12:30N 49°38' W 124°30'4 4.3
2015-Mar-04 11:31N 49°35' W 124°25'4 4.7
2015-Mar-04 10:33N 49°33' W 124°19'5 5.3
2015-Mar-04 09:33N 49°30' W 124°11'6 6.1
2015-Mar-04 08:33N 49°26' W 124°05'6 5.7
2015-Mar-04 07:32N 49°23' W 123°58'6 5.5
2015-Mar-04 06:31N 49°20' W 123°50'5 5.2
2015-Mar-04 05:33N 49°17' W 123°44'5 5.0
2015-Mar-04 04:33N 49°14' W 123°38'5 5.2
2015-Mar-04 03:33N 49°10' W 123°32'6 6.3
2015-Mar-04 02:34N 49°06' W 123°25'7 7.0
2015-Mar-04 01:33N 49°02' W 123°17'6 6.2
2015-Mar-04 00:33N 48°58' W 123°09'6 5.8
2015-Mar-03 23:33N 48°54' W 123°03'7 6.8
2015-Mar-03 22:33N 48°50' W 122°55'7 7.3
2015-Mar-03 21:32N 48°45' W 122°46'7 6.8
2015-Mar-03 20:33N 48°39' W 122°44'7 6.8
2015-Mar-03 19:33N 48°32' W 122°44'7 6.7
2015-Mar-03 18:33N 48°25' W 122°45'7 6.7
2015-Mar-03 17:32N 48°18' W 122°46'7 6.7
2015-Mar-03 16:32N 48°12' W 122°46'10 9.3
2015-Mar-03 15:28N 48°03' W 122°38'8 8.8
2015-Mar-03 14:33N 47°57' W 122°31'5 8.8
2015-Mar-03 13:59N 47°53' W 122°26'3 7.7
2015-Mar-03 13:33N 47°54' W 122°21'6 5.8
2015-Mar-03 12:33N 47°58' W 122°16'2 2.2
2015-Mar-03 11:33N 47°60' W 122°13'2 1.8
2015-Mar-03 10:31N 48°01' W 122°11'0 0.0
2015-Mar-03 07:31N 48°01' W 122°11'0 0.0
2015-Mar-03 06:33N 48°01' W 122°11'0 0.0
2015-Mar-03 05:32N 48°01' W 122°11'0 0.0
2015-Mar-03 02:33N 48°01' W 122°11'0 0.0
2015-Mar-03 01:33N 48°01' W 122°11'0 0.0
2015-Mar-03 00:31N 48°01' W 122°11'0 0.0
2015-Mar-02 23:25N 48°01' W 122°11'0 0.0
2015-Mar-02 22:16N 48°01' W 122°11'0 0.0
2015-Mar-02 20:33N 48°01' W 122°11'0 0.0
2015-Mar-02 18:07N 48°01' W 122°11'0 0.0
2015-Mar-02 13:08N 48°01' W 122°11'0 0.3
2015-Mar-02 12:33N 48°01' W 122°11'0 0.2
2015-Mar-02 11:33N 48°01' W 122°12'2 2.0
2015-Mar-02 10:33N 47°60' W 122°13'2 1.5
2015-Mar-02 09:33N 47°58' W 122°15'2 2.3
2015-Mar-02 08:33N 47°58' W 122°18'4 4.2
2015-Mar-02 07:33N 47°54' W 122°21'5 4.6
2015-Mar-02 06:33N 47°50' W 122°24'5 4.9
2015-Mar-02 05:33N 47°45' W 122°25'0 4.9
2015-Mar-02 05:30N 47°45' W 122°25'5 4.9
2015-Mar-02 04:33N 47°40' W 122°27'0 4.5
2015-Mar-02 04:30N 47°40' W 122°27'5 5.2
2015-Mar-02 03:33N 47°36' W 122°22'0 5.1
2015-Mar-02 03:30N 47°36' W 122°22'3 2.7
2015-Mar-02 02:33N 47°33' W 122°21'1 4.6
2015-Mar-02 02:19N 47°32' W 122°20'0 0.5
2015-Mar-02 01:30N 47°33' W 122°20'1 3.5
2015-Mar-02 01:08N 47°34' W 122°21'2 2.8
2015-Mar-02 00:33N 47°36' W 122°22'1 0.9
2015-Mar-01 23:14N 47°34' W 122°21'0 0.0
2015-Mar-01 23:14N 47°34' W 122°21'0 0.0
2015-Mar-01 22:33N 47°34' W 122°21'0 0.0
2015-Mar-01 22:24N 47°34' W 122°21'1 0.0
2015-Feb-28 10:33N 47°34' W 122°21'0 0.0
2015-Feb-28 10:19N 47°34' W 122°21'1 1.8
2015-Feb-28 09:32N 47°35' W 122°22'0 5.6
2015-Feb-28 09:28N 47°36' W 122°22'4 4.7
2015-Feb-28 08:32N 47°33' W 122°27'7 5.9
2015-Feb-28 07:26N 47°27' W 122°31'6 6.1
2015-Feb-28 06:30N 47°21' W 122°32'4 4.1
2015-Feb-28 05:27N 47°17' W 122°33'3 3.5
2015-Feb-28 04:33N 47°14' W 122°35'6 2.9
2015-Feb-28 02:21N 47°08' W 122°39'0 0.4
2015-Feb-28 01:25N 47°09' W 122°38'0 0.0
2015-Feb-28 00:07N 47°09' W 122°38'1 0.7
2015-Feb-27 23:17N 47°08' W 122°39'4 1.7
2015-Feb-27 21:08N 47°11' W 122°37'6 8.5
2015-Feb-27 20:28N 47°16' W 122°33'8 8.6
2015-Feb-27 19:30N 47°25' W 122°32'8 8.5
2015-Feb-27 18:32N 47°32' W 122°28'3 8.7
2015-Feb-27 18:08N 47°35' W 122°25'3 4.9
2015-Feb-27 17:31N 47°34' W 122°21'0 1.0
2015-Feb-27 17:19N 47°34' W 122°21'0 0.4
2015-Feb-27 16:25N 47°34' W 122°21'1 3.7
2015-Feb-27 16:13N 47°35' W 122°22'3 4.5
2015-Feb-27 15:31N 47°34' W 122°26'0 7.3
2015-Feb-27 15:28N 47°34' W 122°26'7 8.0
2015-Feb-27 14:33N 47°27' W 122°31'8 8.1
2015-Feb-27 13:32N 47°19' W 122°33'8 8.3
2015-Feb-27 12:33N 47°11' W 122°37'13 0.7
2015-Feb-26 18:05N 47°11' W 122°56'2 3.9
2015-Feb-26 17:30N 47°09' W 122°54'0 0.1
2015-Feb-26 16:33N 47°09' W 122°54'4 4.2
2015-Feb-26 15:33N 47°12' W 122°49'7 5.3
2015-Feb-26 14:18N 47°07' W 122°42'3 4.3
2015-Feb-26 13:33N 47°10' W 122°39'6 6.2
2015-Feb-26 12:33N 47°15' W 122°34'6 6.1
2015-Feb-26 11:33N 47°21' W 122°33'7 6.8
2015-Feb-26 10:33N 47°28' W 122°31'8 7.9
2015-Feb-26 09:32N 47°35' W 122°25'1 4.5
2015-Feb-26 09:20N 47°35' W 122°24'3 3.9
2015-Feb-26 08:27N 47°33' W 122°20'1 1.0
2015-Feb-26 07:32N 47°34' W 122°21'0 0.0
2015-Feb-26 07:28N 47°34' W 122°21'1 1.0
2015-Feb-26 06:58N 47°34' W 122°21'0 0.8
2015-Feb-26 06:29N 47°34' W 122°21'2 1.9
2015-Feb-26 05:33N 47°36' W 122°22'0 1.0
2015-Feb-26 05:28N 47°36' W 122°22'3 3.6
2015-Feb-26 04:33N 47°38' W 122°26'0 4.6
2015-Feb-26 04:33N 47°38' W 122°26'5 5.4
2015-Feb-26 03:33N 47°43' W 122°28'1 7.0
2015-Feb-26 03:28N 47°44' W 122°28'5 5.8
2015-Feb-26 02:33N 47°49' W 122°28'1 6.1
2015-Feb-26 02:20N 47°50' W 122°29'5 6.1
2015-Feb-26 01:33N 47°55' W 122°30'5 5.4
2015-Feb-26 00:33N 47°58' W 122°36'4 4.3
2015-Feb-25 23:33N 48°02' W 122°39'4 2.9
2015-Feb-25 22:09N 48°06' W 122°41'1 1.8
2015-Feb-25 21:26N 48°07' W 122°42'0 3.0
2015-Feb-25 21:17N 48°08' W 122°42'2 2.7
2015-Feb-25 20:32N 48°09' W 122°44'3 2.8
2015-Feb-25 19:33N 48°11' W 122°47'11 5.5
2015-Feb-25 17:33N 48°22' W 122°46'5 5.5
2015-Feb-25 16:33N 48°27' W 122°44'5 5.0
2015-Feb-25 15:33N 48°32' W 122°45'5 4.9
2015-Feb-25 14:33N 48°37' W 122°45'5 5.2
2015-Feb-25 13:33N 48°42' W 122°45'6 5.8
2015-Feb-25 12:31N 48°47' W 122°51'6 6.0
2015-Feb-25 11:33N 48°50' W 122°59'6 6.1
2015-Feb-25 10:33N 48°53' W 123°07'7 6.6
2015-Feb-25 09:33N 48°57' W 123°14'7 6.5
2015-Feb-25 08:33N 49°02' W 123°21'6 6.1
2015-Feb-25 07:33N 49°06' W 123°28'6 6.1
2015-Feb-25 06:33N 49°10' W 123°35'6 5.7
2015-Feb-25 05:33N 49°14' W 123°41'5 5.4
2015-Feb-25 04:33N 49°17' W 123°48'5 5.3
2015-Feb-25 03:32N 49°21' W 123°54'6 5.4
2015-Feb-25 02:26N 49°25' W 124°01'7 5.6
2015-Feb-25 01:15N 49°29' W 124°09'4 5.8
2015-Feb-25 00:31N 49°32' W 124°14'6 5.9
2015-Feb-24 23:33N 49°34' W 124°22'6 5.8
2015-Feb-24 22:28N 49°38' W 124°30'4 2.2
2015-Feb-24 20:33N 49°42' W 124°33'0 0.0
2015-Feb-24 19:33N 49°42' W 124°33'0 0.0
2015-Feb-24 17:32N 49°42' W 124°33'0 0.0
2015-Feb-24 16:13N 49°42' W 124°33'  

Dump ship's entire track history